createdAt,value
2019-05-03T00:02:41.710Z,100061.19
2019-05-03T00:05:21.494Z,100058.00
2019-05-03T00:07:53.257Z,100067.92
2019-05-03T00:10:23.717Z,100056.59
2019-05-03T00:12:54.209Z,100047.30
2019-05-03T00:15:35.072Z,100044.55
2019-05-03T00:18:05.601Z,100037.90
2019-05-03T00:20:36.056Z,100047.66
2019-05-03T00:23:06.453Z,100046.61
2019-05-03T00:25:37.063Z,100044.63
2019-05-03T00:28:07.499Z,100043.58
2019-05-03T00:30:38.179Z,100042.61
2019-05-03T00:33:08.663Z,100037.83
2019-05-03T00:35:46.663Z,100039.27
2019-05-03T00:38:17.112Z,100041.28
2019-05-03T00:40:47.618Z,100042.21
2019-05-03T00:43:18.146Z,100040.84
2019-05-03T00:45:48.656Z,100042.56
2019-05-03T00:48:21.964Z,100041.63
2019-05-03T00:50:53.148Z,100035.06
2019-05-03T00:53:24.675Z,100036.89
2019-05-03T00:55:56.154Z,100038.62
2019-05-03T00:58:26.650Z,100033.98
2019-05-03T01:00:57.111Z,100032.66
2019-05-03T01:03:27.624Z,100029.88
2019-05-03T01:05:58.058Z,100031.47
2019-05-03T01:08:28.573Z,100029.77
2019-05-03T01:11:01.993Z,100035.58
2019-05-03T01:13:32.242Z,100033.87
2019-05-03T01:16:07.349Z,100025.92
2019-05-03T01:18:37.841Z,100024.59
2019-05-03T01:21:08.320Z,100026.56
2019-05-03T01:23:38.883Z,100019.68
2019-05-03T01:26:09.441Z,100034.64
2019-05-03T01:28:40.014Z,100030.41
2019-05-03T01:31:12.001Z,100030.41
2019-05-03T01:33:42.682Z,100032.80
2019-05-03T01:36:13.127Z,100025.79
2019-05-03T01:38:43.963Z,100034.52
2019-05-03T01:41:14.492Z,100035.32
2019-05-03T01:43:45.107Z,100026.68
2019-05-03T01:46:15.612Z,100028.73
2019-05-03T01:48:54.984Z,100022.45
2019-05-03T01:51:33.380Z,100024.72
2019-05-03T01:54:03.826Z,100028.36
2019-05-03T01:56:34.344Z,100024.25
2019-05-03T01:59:05.198Z,100029.22
2019-05-03T02:01:43.373Z,100020.75
2019-05-03T02:04:21.644Z,100020.36
2019-05-03T02:06:52.358Z,100020.28
2019-05-03T02:09:22.849Z,100018.59
2019-05-03T02:11:53.270Z,100022.86
2019-05-03T02:14:23.782Z,100015.83
2019-05-03T02:16:54.281Z,100018.73
2019-05-03T02:19:25.755Z,100015.20
2019-05-03T02:21:56.327Z,100015.80
2019-05-03T02:24:26.804Z,100031.83
2019-05-03T02:26:57.405Z,100029.32
2019-05-03T02:29:27.905Z,100022.94
2019-05-03T02:32:02.966Z,100014.61
2019-05-03T02:34:34.291Z,100017.08
2019-05-03T02:37:04.804Z,100020.78
2019-05-03T02:39:35.289Z,100019.78
2019-05-03T02:42:11.009Z,100033.91
2019-05-03T02:44:38.971Z,100033.44
2019-05-03T02:47:17.936Z,100044.66
2019-05-03T02:49:50.133Z,100051.10
2019-05-03T02:52:36.595Z,100061.10
2019-05-03T02:55:07.395Z,100054.75
2019-05-03T02:57:37.865Z,100066.05
2019-05-03T03:00:09.625Z,100075.39
2019-05-03T03:02:40.225Z,100074.03
2019-05-03T03:05:11.263Z,100077.16
2019-05-03T03:07:45.741Z,100072.99
2019-05-03T03:10:16.214Z,100076.12
2019-05-03T03:12:49.399Z,100080.47
2019-05-03T03:15:19.943Z,100080.71
2019-05-03T03:17:52.010Z,100082.80
2019-05-03T03:20:25.272Z,100084.94
2019-05-03T03:22:56.099Z,100085.20
2019-05-03T03:25:29.587Z,100074.17
2019-05-03T03:28:01.564Z,100082.30
2019-05-03T03:30:57.475Z,100083.86
2019-05-03T03:33:29.860Z,100084.81
2019-05-03T03:36:29.315Z,100087.81
2019-05-03T03:38:35.136Z,100090.27
2019-05-03T03:41:06.203Z,100091.73
2019-05-03T03:43:37.122Z,100090.16
2019-05-03T03:46:08.892Z,100097.44
2019-05-03T03:48:40.812Z,100095.13
2019-05-03T03:51:12.189Z,100101.83
2019-05-03T03:53:46.535Z,100108.58
2019-05-03T03:56:16.352Z,100106.39
2019-05-03T03:58:47.025Z,100110.66
2019-05-03T04:01:17.986Z,100110.23
2019-05-03T04:03:48.762Z,100113.64
2019-05-03T04:06:20.462Z,100113.62
2019-05-03T04:08:52.504Z,100106.20
2019-05-03T04:11:22.965Z,100104.27
2019-05-03T04:13:55.922Z,100097.11
2019-05-03T04:16:27.766Z,100097.80
2019-05-03T04:19:05.778Z,100100.27
2019-05-03T04:21:37.142Z,100094.63
2019-05-03T04:24:07.634Z,100099.69
2019-05-03T04:26:38.106Z,100095.61
2019-05-03T04:29:09.636Z,100095.97
2019-05-03T04:31:40.232Z,100091.03
2019-05-03T04:34:15.983Z,100094.19
2019-05-03T04:36:46.141Z,100087.58
2019-05-03T04:39:20.268Z,100090.89
2019-05-03T04:41:49.901Z,100087.52
2019-05-03T04:44:20.482Z,100087.16
2019-05-03T04:46:51.002Z,100096.60
2019-05-03T04:49:21.539Z,100097.05
2019-05-03T04:51:55.917Z,100100.58
2019-05-03T04:54:28.754Z,100099.55
2019-05-03T04:56:59.278Z,100101.63
2019-05-03T04:59:29.793Z,100106.70
2019-05-03T05:02:00.319Z,100105.01
2019-05-03T05:04:30.785Z,100107.22
2019-05-03T05:07:01.339Z,100116.03
2019-05-03T05:09:31.798Z,100115.63
2019-05-03T05:12:02.304Z,100113.06
2019-05-03T05:14:35.053Z,100112.50
2019-05-03T05:17:06.391Z,100115.23
2019-05-03T05:19:44.488Z,100118.41
2019-05-03T05:22:16.115Z,100106.90
2019-05-03T05:24:46.739Z,100105.30
2019-05-03T05:27:18.938Z,100104.47
2019-05-03T05:29:51.467Z,100114.27
2019-05-03T05:32:22.038Z,100113.11
2019-05-03T05:34:52.683Z,100112.86
2019-05-03T05:37:24.835Z,100117.94
2019-05-03T05:39:55.275Z,100114.03
2019-05-03T05:42:25.794Z,100113.09
2019-05-03T05:44:56.271Z,100115.17
2019-05-03T05:47:28.536Z,100109.13
2019-05-03T05:50:04.976Z,100112.93
2019-05-03T05:52:36.646Z,100117.02
2019-05-03T05:55:11.520Z,100113.32
2019-05-03T05:57:47.813Z,100116.32
2019-05-03T06:00:35.937Z,100111.95
2019-05-03T06:03:06.554Z,100113.91
2019-05-03T06:05:37.060Z,100116.53
2019-05-03T06:08:15.171Z,100119.64
2019-05-03T06:10:56.293Z,100110.23
2019-05-03T06:13:28.692Z,100113.39
2019-05-03T06:16:06.801Z,100114.52
2019-05-03T06:18:38.850Z,100121.67
2019-05-03T06:21:27.234Z,100117.01
2019-05-03T06:23:59.730Z,100115.17
2019-05-03T06:26:37.912Z,100115.03
2019-05-03T06:29:09.477Z,100120.26
2019-05-03T06:31:58.146Z,100121.31
2019-05-03T06:34:30.717Z,100130.86
2019-05-03T06:37:05.849Z,100127.22
2019-05-03T06:39:36.279Z,100134.16
2019-05-03T06:42:09.843Z,100138.45
2019-05-03T06:44:39.249Z,100138.44
2019-05-03T06:47:10.535Z,100139.81
2019-05-03T06:49:44.829Z,100145.90
2019-05-03T06:52:14.899Z,100142.37
2019-05-03T06:54:46.879Z,100147.95
2019-05-03T06:57:18.319Z,100150.01
2019-05-03T06:59:50.643Z,100144.26
2019-05-03T07:02:41.197Z,100147.30
2019-05-03T07:05:19.303Z,100141.63
2019-05-03T07:07:54.825Z,100142.45
2019-05-03T07:10:35.125Z,100146.56
2019-05-03T07:13:08.759Z,100153.70
2019-05-03T07:15:37.944Z,100158.66
2019-05-03T07:18:08.461Z,100153.52
2019-05-03T07:20:46.614Z,100153.19
2019-05-03T07:23:18.880Z,100157.78
2019-05-03T07:25:49.587Z,100164.58
2019-05-03T07:28:21.701Z,100159.98
2019-05-03T07:30:57.496Z,100161.08
2019-05-03T07:33:35.580Z,100158.67
2019-05-03T07:36:07.233Z,100160.11
2019-05-03T07:38:39.600Z,100155.59
2019-05-03T07:41:15.178Z,100153.88
2019-05-03T07:43:50.153Z,100152.72
2019-05-03T07:46:24.754Z,100163.27
2019-05-03T07:48:55.517Z,100167.88
2019-05-03T07:51:26.133Z,100159.10
2019-05-03T07:53:56.763Z,100161.42
2019-05-03T07:56:29.119Z,100153.95
2019-05-03T07:59:05.656Z,100156.86
2019-05-03T08:01:35.564Z,100157.68
2019-05-03T08:04:06.394Z,100157.22
2019-05-03T08:06:38.065Z,100162.30
2019-05-03T08:09:08.956Z,100172.58
2019-05-03T08:11:39.660Z,100175.52
2019-05-03T08:14:10.524Z,100174.93
2019-05-03T08:16:41.222Z,100179.86
2019-05-03T08:19:11.740Z,100189.23
2019-05-03T08:21:42.385Z,100180.92
2019-05-03T08:24:15.100Z,100179.30
2019-05-03T08:26:49.160Z,100178.94
2019-05-03T08:29:19.837Z,100188.55
2019-05-03T08:32:10.218Z,100174.83
2019-05-03T08:34:48.298Z,100166.16
2019-05-03T08:37:24.378Z,100178.14
2019-05-03T08:39:55.207Z,100183.80
2019-05-03T08:42:26.306Z,100185.23
2019-05-03T08:44:57.965Z,100184.72
2019-05-03T08:47:28.535Z,100187.67
2019-05-03T08:49:59.114Z,100184.34
2019-05-03T08:52:34.707Z,100188.55
2019-05-03T08:55:06.642Z,100187.17
2019-05-03T08:57:37.225Z,100183.77
2019-05-03T09:00:09.270Z,100186.51
2019-05-03T09:02:39.784Z,100189.65
2019-05-03T09:05:10.582Z,100193.14
2019-05-03T09:07:41.231Z,100186.48
2019-05-03T09:10:19.086Z,100192.52
2019-05-03T09:13:06.804Z,100187.62
2019-05-03T09:15:39.269Z,100180.84
2019-05-03T09:18:17.221Z,100181.56
2019-05-03T09:20:46.571Z,100188.58
2019-05-03T09:23:23.413Z,100187.17
2019-05-03T09:25:56.848Z,100184.48
2019-05-03T09:28:29.145Z,100184.55
2019-05-03T09:30:59.549Z,100179.78
2019-05-03T09:33:30.184Z,100180.02
2019-05-03T09:36:00.704Z,100180.81
2019-05-03T09:38:32.264Z,100175.02
2019-05-03T09:41:05.327Z,100174.52
2019-05-03T09:43:35.997Z,100171.02
2019-05-03T09:46:07.593Z,100170.52
2019-05-03T09:48:38.166Z,100170.34
2019-05-03T09:51:09.948Z,100177.43
2019-05-03T09:53:42.112Z,100169.26
2019-05-03T09:56:15.512Z,100168.64
2019-05-03T09:58:47.257Z,100169.41
2019-05-03T10:01:19.596Z,100171.13
2019-05-03T10:03:50.464Z,100171.91
2019-05-03T10:06:25.489Z,100168.48
2019-05-03T10:08:56.054Z,100172.84
2019-05-03T10:11:26.607Z,100165.70
2019-05-03T10:13:58.364Z,100167.60
2019-05-03T10:16:31.519Z,100165.69
2019-05-03T10:19:02.068Z,100172.02
2019-05-03T10:21:35.558Z,100173.89
2019-05-03T10:24:06.775Z,100170.95
2019-05-03T10:26:37.632Z,100169.81
2019-05-03T10:29:09.339Z,100174.42
2019-05-03T10:31:41.665Z,100167.36
2019-05-03T10:34:12.272Z,100171.34
2019-05-03T10:36:44.151Z,100167.77
2019-05-03T10:39:17.557Z,100168.53
2019-05-03T10:41:48.539Z,100163.71
2019-05-03T10:44:19.783Z,100166.65
2019-05-03T10:47:05.506Z,100164.39
2019-05-03T10:49:38.072Z,100171.83
2019-05-03T10:52:10.400Z,100175.07
2019-05-03T10:54:40.958Z,100190.65
2019-05-03T10:57:17.349Z,100186.72
2019-05-03T10:59:48.018Z,100188.47
2019-05-03T11:02:22.809Z,100179.34
2019-05-03T11:04:54.873Z,100178.78
2019-05-03T11:07:25.845Z,100179.95
2019-05-03T11:09:57.583Z,100183.30
2019-05-03T11:12:29.896Z,100190.39
2019-05-03T11:15:00.461Z,100189.59
2019-05-03T11:17:36.266Z,100186.37
2019-05-03T11:20:08.007Z,100202.27
2019-05-03T11:22:38.741Z,100198.14
2019-05-03T11:25:09.479Z,100190.59
2019-05-03T11:27:44.740Z,100180.81
2019-05-03T11:30:15.855Z,100176.26
2019-05-03T11:33:00.163Z,100172.89
2019-05-03T11:35:40.162Z,100164.09
2019-05-03T11:38:22.409Z,100159.04
2019-05-03T11:40:53.141Z,100160.30
2019-05-03T11:43:24.783Z,100156.42
2019-05-03T11:45:57.462Z,100162.05
2019-05-03T11:48:27.956Z,100169.27
2019-05-03T11:50:58.526Z,100185.12
2019-05-03T11:53:29.104Z,100184.77
2019-05-03T11:56:00.727Z,100177.27
2019-05-03T11:58:31.192Z,100171.43
2019-05-03T12:01:15.796Z,100167.77
2019-05-03T12:03:45.191Z,100163.05
2019-05-03T12:06:16.208Z,100161.69
2019-05-03T12:08:46.722Z,100161.64
2019-05-03T12:11:17.383Z,100152.65
2019-05-03T12:13:47.954Z,100151.69
2019-05-03T12:16:32.217Z,100150.98
2019-05-03T12:18:53.980Z,100153.31
2019-05-03T12:21:26.979Z,100146.22
2019-05-03T12:23:57.674Z,100150.13
2019-05-03T12:26:40.839Z,100144.29
2019-05-03T12:29:00.801Z,100135.30
2019-05-03T12:31:38.038Z,100129.71
2019-05-03T12:34:05.939Z,100134.94
2019-05-03T12:36:39.179Z,100139.98
2019-05-03T12:39:23.184Z,100131.24
2019-05-03T12:41:42.259Z,100127.11
2019-05-03T12:44:12.788Z,100134.20
2019-05-03T12:46:45.012Z,100130.34
2019-05-03T12:49:15.616Z,100129.91
2019-05-03T12:51:47.197Z,100132.48
2019-05-03T12:54:18.846Z,100130.98
2019-05-03T12:56:49.482Z,100125.06
2019-05-03T12:59:22.611Z,100134.50
2019-05-03T13:02:04.856Z,100127.43
2019-05-03T13:04:40.283Z,100128.36
2019-05-03T13:07:18.427Z,100122.88
2019-05-03T13:09:49.007Z,100127.48
2019-05-03T13:12:21.266Z,100133.19
2019-05-03T13:14:51.889Z,100136.30
2019-05-03T13:17:39.417Z,100134.50
2019-05-03T13:20:14.496Z,100134.45
2019-05-03T13:22:46.163Z,100129.02
2019-05-03T13:25:17.046Z,100127.11
2019-05-03T13:27:48.618Z,100127.97
2019-05-03T13:30:19.242Z,100126.84
2019-05-03T13:32:49.730Z,100127.02
2019-05-03T13:35:20.428Z,100120.70
2019-05-03T13:37:50.909Z,100126.05
2019-05-03T13:40:21.604Z,100119.83
2019-05-03T13:42:59.310Z,100124.34
2019-05-03T13:45:24.799Z,100121.30
2019-05-03T13:47:56.369Z,100123.84
2019-05-03T13:50:28.943Z,100123.42
2019-05-03T13:52:59.527Z,100120.16
2019-05-03T13:55:31.129Z,100121.09
2019-05-03T13:58:01.699Z,100116.45
2019-05-03T14:00:34.449Z,100120.31
2019-05-03T14:03:04.708Z,100115.06
2019-05-03T14:05:35.430Z,100116.66
2019-05-03T14:08:05.982Z,100122.23
2019-05-03T14:10:37.563Z,100122.81
2019-05-03T14:13:09.185Z,100121.75
2019-05-03T14:15:39.726Z,100120.18
2019-05-03T14:18:11.759Z,100126.91
2019-05-03T14:20:47.775Z,100136.23
2019-05-03T14:23:19.409Z,100137.77
2019-05-03T14:25:49.950Z,100137.47
2019-05-03T14:28:20.453Z,100142.80
2019-05-03T14:30:52.028Z,100134.66
2019-05-03T14:33:24.665Z,100135.20
2019-05-03T14:35:54.872Z,100134.83
2019-05-03T14:38:26.491Z,100137.91
2019-05-03T14:40:57.062Z,100130.71
2019-05-03T14:43:28.532Z,100134.80
2019-05-03T14:45:59.955Z,100134.91
2019-05-03T14:48:30.516Z,100137.20
2019-05-03T14:51:01.021Z,100140.59
2019-05-03T14:53:31.720Z,100141.31
2019-05-03T14:56:04.997Z,100143.64
2019-05-03T14:58:50.785Z,100141.86
2019-05-03T15:01:31.999Z,100139.41
2019-05-03T15:04:02.580Z,100136.38
2019-05-03T15:06:35.424Z,100134.20
2019-05-03T15:09:07.691Z,100139.59
2019-05-03T15:11:41.574Z,100138.55
2019-05-03T15:14:12.149Z,100140.25
2019-05-03T15:16:42.624Z,100142.71
2019-05-03T15:19:14.794Z,100136.00
2019-05-03T15:21:46.590Z,100135.27
2019-05-03T15:24:17.375Z,100132.13
2019-05-03T15:26:48.011Z,100136.09
2019-05-03T15:29:21.379Z,100132.80
2019-05-03T15:31:55.248Z,100141.06
2019-05-03T15:34:26.002Z,100144.93
2019-05-03T15:36:57.649Z,100137.45
2019-05-03T15:39:28.570Z,100143.70
2019-05-03T15:41:59.146Z,100139.05
2019-05-03T15:44:31.451Z,100149.98
2019-05-03T15:47:09.431Z,100144.08
2019-05-03T15:49:38.450Z,100142.65
2019-05-03T15:52:09.201Z,100144.19
2019-05-03T15:54:41.990Z,100153.36
2019-05-03T15:57:14.502Z,100151.86
2019-05-03T15:59:45.068Z,100149.29
2019-05-03T16:02:15.665Z,100151.08
2019-05-03T16:04:47.245Z,100152.52
2019-05-03T16:07:17.815Z,100156.56
2019-05-03T16:09:48.365Z,100154.83
2019-05-03T16:12:18.870Z,100160.44
2019-05-03T16:14:51.893Z,100160.06
2019-05-03T16:17:24.462Z,100167.04
2019-05-03T16:19:56.736Z,100172.87
2019-05-03T16:22:27.326Z,100160.16
2019-05-03T16:24:59.181Z,100169.84
2019-05-03T16:27:31.343Z,100174.23
2019-05-03T16:30:04.540Z,100171.66
2019-05-03T16:32:36.577Z,100176.70
2019-05-03T16:35:07.265Z,100175.58
2019-05-03T16:37:59.437Z,100184.23
2019-05-03T16:40:28.320Z,100183.76
2019-05-03T16:43:25.587Z,100190.08
2019-05-03T16:48:54.627Z,100195.27
2019-05-03T16:51:31.525Z,100192.42
2019-05-03T16:54:14.602Z,100190.36
2019-05-03T16:56:58.037Z,100201.67
2019-05-03T16:59:38.542Z,100202.26
2019-05-03T17:02:20.070Z,100208.22
2019-05-03T17:05:07.415Z,100214.31
2019-05-03T17:07:39.723Z,100216.47
2019-05-03T17:10:11.953Z,100221.70
2019-05-03T17:12:45.316Z,100229.63
2019-05-03T17:15:15.817Z,100230.83
2019-05-03T17:17:47.010Z,100238.25
2019-05-03T17:20:20.848Z,100242.38
2019-05-03T17:22:55.384Z,100242.45
2019-05-03T17:25:25.889Z,100245.89
2019-05-03T17:27:56.489Z,100255.66
2019-05-03T17:30:33.905Z,100256.23
2019-05-03T17:32:59.869Z,100273.55
2019-05-03T17:35:30.680Z,100260.20
2019-05-03T17:38:02.529Z,100266.98
2019-05-03T17:40:51.683Z,100266.41
2019-05-03T17:43:23.884Z,100277.21
2019-05-03T17:45:56.049Z,100272.28
2019-05-03T17:48:27.722Z,100280.80
2019-05-03T17:50:59.496Z,100283.47
2019-05-03T17:53:39.256Z,100286.95
2019-05-03T17:56:15.233Z,100282.98
2019-05-03T17:58:47.548Z,100290.67
2019-05-03T18:01:28.831Z,100289.54
2019-05-03T18:04:17.378Z,100292.49
2019-05-03T18:06:58.797Z,100297.09
2019-05-03T18:09:30.916Z,100286.78
2019-05-03T18:12:06.210Z,100291.78
2019-05-03T18:14:36.838Z,100298.69
2019-05-03T18:17:07.384Z,100290.70
2019-05-03T18:19:37.977Z,100295.78
2019-05-03T18:22:08.938Z,100294.56
2019-05-03T18:24:40.530Z,100296.48
2019-05-03T18:27:12.002Z,100299.78
2019-05-03T18:29:42.584Z,100297.91
2019-05-03T18:32:14.730Z,100299.94
2019-05-03T18:34:45.533Z,100301.36
2019-05-03T18:37:18.093Z,100310.50
2019-05-03T18:39:49.040Z,100311.92
2019-05-03T18:42:21.126Z,100306.03
2019-05-03T18:44:55.125Z,100304.25
2019-05-03T18:47:27.012Z,100316.06
2019-05-03T18:49:57.491Z,100311.95
2019-05-03T18:52:29.632Z,100314.84
2019-05-03T18:55:01.675Z,100315.41
2019-05-03T18:57:33.848Z,100323.68
2019-05-03T19:00:08.215Z,100326.92
2019-05-03T19:02:38.923Z,100328.47
2019-05-03T19:05:09.499Z,100334.19
2019-05-03T19:07:47.458Z,100328.66
2019-05-03T19:10:24.687Z,100334.22
2019-05-03T19:12:57.320Z,100335.75
2019-05-03T19:15:29.247Z,100326.78
2019-05-03T19:18:04.613Z,100330.62
2019-05-03T19:20:36.109Z,100336.77
2019-05-03T19:23:06.625Z,100341.35
2019-05-03T19:25:46.300Z,100342.03
2019-05-03T19:28:12.528Z,100330.30
2019-05-03T19:30:45.491Z,100342.90
2019-05-03T19:33:17.006Z,100344.14
2019-05-03T19:35:48.544Z,100343.69
2019-05-03T19:38:19.052Z,100341.58
2019-05-03T19:40:49.508Z,100349.23
2019-05-03T19:43:20.044Z,100342.56
2019-05-03T19:45:51.595Z,100346.58
2019-05-03T19:48:23.145Z,100343.13
2019-05-03T19:50:54.883Z,100347.14
2019-05-03T19:53:30.154Z,100354.39
2019-05-03T19:56:01.759Z,100350.19
2019-05-03T19:58:32.218Z,100350.38
2019-05-03T20:01:07.305Z,100351.66
2019-05-03T20:03:42.382Z,100356.60
2019-05-03T20:06:14.526Z,100369.16
2019-05-03T20:08:49.703Z,100364.85
2019-05-03T20:11:20.193Z,100370.79
2019-05-03T20:13:55.269Z,100373.81
2019-05-03T20:16:28.804Z,100388.69
2019-05-03T20:19:00.348Z,100381.20
2019-05-03T20:21:30.843Z,100386.64
2019-05-03T20:24:01.320Z,100380.62
2019-05-03T20:26:31.799Z,100394.51
2019-05-03T20:29:02.280Z,100384.20
2019-05-03T20:31:32.823Z,100381.33
2019-05-03T20:34:05.228Z,100392.19
2019-05-03T20:36:36.439Z,100391.50
2019-05-03T20:39:08.897Z,100393.49
2019-05-03T20:41:40.997Z,100386.81
2019-05-03T20:44:22.391Z,100391.00
2019-05-03T20:46:55.042Z,100394.22
2019-05-03T20:49:25.786Z,100409.48
2019-05-03T20:51:56.309Z,100394.45
2019-05-03T20:54:27.871Z,100397.70
2019-05-03T20:56:58.439Z,100401.88
2019-05-03T20:59:41.542Z,100404.00
2019-05-03T21:02:01.048Z,100400.17
2019-05-03T21:04:35.225Z,100409.59
2019-05-03T21:07:05.715Z,100404.83
2019-05-03T21:09:36.370Z,100399.00
2019-05-03T21:12:08.876Z,100407.60
2019-05-03T21:14:39.407Z,100405.58
2019-05-03T21:17:12.517Z,100409.14
2019-05-03T21:20:08.161Z,100412.94
2019-05-03T21:22:39.610Z,100411.43
2019-05-03T21:25:14.647Z,100410.88
2019-05-03T21:27:45.129Z,100409.20
2019-05-03T21:30:15.646Z,100409.27
2019-05-03T21:32:46.206Z,100413.09
2019-05-03T21:35:16.776Z,100418.92
2019-05-03T21:37:49.240Z,100408.72
2019-05-03T21:40:19.769Z,100410.01
2019-05-03T21:42:52.306Z,100422.66
2019-05-03T21:45:33.439Z,100419.30
2019-05-03T21:48:07.524Z,100408.79
2019-05-03T21:50:39.039Z,100416.25
2019-05-03T21:53:09.728Z,100414.72
2019-05-03T21:55:40.248Z,100421.02
2019-05-03T21:58:11.796Z,100417.56
2019-05-03T22:00:56.939Z,100414.52
2019-05-03T22:03:28.400Z,100418.90
2019-05-03T22:05:58.971Z,100423.28
2019-05-03T22:08:30.424Z,100417.56
2019-05-03T22:11:02.077Z,100416.87
2019-05-03T22:13:32.559Z,100415.72
2019-05-03T22:16:07.391Z,100417.22
2019-05-03T22:18:38.518Z,100425.72
2019-05-03T22:21:27.029Z,100417.88
2019-05-03T22:24:01.906Z,100418.22
2019-05-03T22:26:52.258Z,100414.62
2019-05-03T22:29:25.225Z,100414.42
2019-05-03T22:31:55.202Z,100410.24
2019-05-03T22:34:25.938Z,100405.86
2019-05-03T22:36:57.045Z,100408.53
2019-05-03T22:39:27.597Z,100415.03
2019-05-03T22:41:58.079Z,100408.32
2019-05-03T22:44:28.517Z,100407.53
2019-05-03T22:46:59.072Z,100414.48
2019-05-03T22:49:29.549Z,100412.77
2019-05-03T22:52:01.001Z,100415.72
2019-05-03T22:54:31.463Z,100415.72
2019-05-03T22:57:01.952Z,100413.22
2019-05-03T22:59:34.311Z,100410.86
2019-05-03T23:02:04.620Z,100415.03
2019-05-03T23:04:35.594Z,100410.75
2019-05-03T23:07:06.171Z,100412.46
2019-05-03T23:09:37.680Z,100407.30
2019-05-03T23:12:09.252Z,100409.01
2019-05-03T23:14:39.683Z,100417.02
2019-05-03T23:17:10.160Z,100415.14
2019-05-03T23:19:44.911Z,100424.00
2019-05-03T23:22:24.475Z,100429.34
2019-05-03T23:24:54.941Z,100439.85
2019-05-03T23:27:26.393Z,100435.70
2019-05-03T23:29:56.933Z,100438.55
2019-05-03T23:32:28.581Z,100436.38
2019-05-03T23:35:00.149Z,100433.83
2019-05-03T23:37:30.660Z,100442.12
2019-05-03T23:40:04.432Z,100447.84
2019-05-03T23:42:35.147Z,100472.06
2019-05-03T23:45:09.426Z,100507.50
2019-05-03T23:47:42.502Z,100509.59
2019-05-03T23:50:16.695Z,100493.30
2019-05-03T23:52:47.150Z,100481.56
2019-05-03T23:55:20.204Z,100488.38
2019-05-03T23:57:52.751Z,100488.57
